Powell, WY (82435)

5:23 PM MST on December 14, 2017 (GMT -0700)
MKCHJ | | Change Station
Active Advisory: Special Statement Active Notice: Public Information Statement

Elev 8131 ft 44.74 °N, 109.38 °W | Updated 211 days ago

Clear
Clear
33.0 °F
Feels Like 24 °F
N
11.0
Wind Variable Wind from ESE
Gusts 16.0 mph

Today
High -- | Low -- °F
--% Chance of Precip.
Yesterday
High -- | Low -- °F
Precip. -- in
Pressure 30.34 in
Visibility 10.0 miles
Clouds Clear
Windchill 24 °F
Dew Point 33 °F
Humidity 100%
Rainfall 0.00 in
Snow Depth Not available.
7:45 AM 4:34 PM
Waning Crescent, 9% visible
METAR KCOD 142356Z AUTO 00000KT 10SM CLR 01/M09 A3021 RMK AO2 SLP273 T00061094 10050 20006 56012 FZRANO
Pressure 30.34 in
Visibility 10.0 miles
Clouds Clear
Windchill 24 °F
Dew Point 33 °F
Humidity 100%
Rainfall 0.00 in
Snow Depth Not available.
7:45 AM 4:34 PM
Waning Crescent, 9% visible
METAR KCOD 142356Z AUTO 00000KT 10SM CLR 01/M09 A3021 RMK AO2 SLP273 T00061094 10050 20006 56012 FZRANO

Get Your Daily Forecast Email!

Thanks for signing up!

Be on the lookout for a verification email in your inbox.

You'll start receiving severe weather alerts in your inbox..

×

10-Day Weather Forecast

Almanac

Astronomy

Dec. 14, 2017 Rise Set
Actual Time
Civil Twilight
Nautical Twilight
Astronomical Twilight
Moon
Length of Visible Light
Length of Day
Tomorrow will be .
, % of the Moon is Illuminated

Today's Extremes

State Highs State Lows

Community

WunderPhotos

Category 6

Welcome to Category 6. This is the collective home for Weather Underground's featured writeups by Dr. Jeff Masters (right), Bob Henson (left), Chris Burt, and other regular contributors.

Nearby

Air Quality

  Air Quality AQ Index Pollutant
Not available.

Snow Depth

Station Depth Elevation

Earthquake Activity

City Distance Mag. Time & Date
Minimum magnitude displayed is 2.5.

Coastal Water Temperatures

Place Temperature

Stations

Nearby Weather Stations

Station Location Temp. Windchill Dew Point Humidity Wind Precip. Elev Updated Type
                   

Watches & Warnings

Special Statement
Issued: 3:16 PM MST Dec. 14, 2017 – National Weather Service

... Snow and colder temperatures for Big Horn and Washakie
counties early Saturday into Saturday evening...

Snow will spread south into Big Horn and Washakie counties early
Saturday morning becoming widespread by Saturday afternoon.
Snowfall is expected to continue through Saturday evening with
snow accumulations of 4 to 8 inches in the mountains and 1 to 3
inches in the lower elevations.

Travel may become difficult on Powder River Pass. Expect slick
icy and snow packed pavement with low visibility.